This is the latest recevied weather packets stored in our database for station/object K4AVM-13. If no packets are shown the sender has not sent any weather packets the latest 10 day(s).
| Time | Temp. | Humidity | Pressure | Rain* | Wind** | Luminosity | Snow |
|---|---|---|---|---|---|---|---|
| 1777476954 | 17.78° C | 79% | 1015 hPa | 0 mm | - | 286 W/m² | - |
| 1777476652 | 17.78° C | 79% | 1015.1 hPa | 0 mm | - | 286 W/m² | - |
| 1777476348 | 17.78° C | 79% | 1015 hPa | 0 mm | - | 286 W/m² | - |
| 1777476044 | 17.78° C | 79% | 1015.1 hPa | 0 mm | - | 286 W/m² | - |
| 1777469061 | 11.11° C | 90% | 1016.7 hPa | 0 mm | - | 41 W/m² | - |
| 1777468756 | 11.11° C | 90% | 1016.6 hPa | 0 mm | - | 41 W/m² | - |
| 1777468452 | 11.11° C | 90% | 1016.8 hPa | 0 mm | - | 41 W/m² | - |
| 1777468150 | 11.11° C | 90% | 1016.8 hPa | 0 mm | - | 41 W/m² | - |
| 1777467845 | 11.11° C | 90% | 1016.7 hPa | 0 mm | - | 41 W/m² | - |
| 1777467541 | 11.11° C | 90% | 1016.8 hPa | 0 mm | - | 41 W/m² | - |
| 1777467236 | 11.11° C | 90% | 1016.7 hPa | 0 mm | - | 41 W/m² | - |
| 1777466933 | 11.11° C | 90% | 1016.8 hPa | 0 mm | - | 41 W/m² | - |
| 1777466631 | 11.11° C | 90% | 1017.1 hPa | 0 mm | - | 41 W/m² | - |
| 1777466327 | 11.11° C | 90% | 1017 hPa | 0 mm | - | 41 W/m² | - |
| 1777466023 | 11.11° C | 90% | 1017.3 hPa | 0 mm | - | 41 W/m² | - |
| 1777465720 | 11.11° C | 90% | 1017 hPa | 0 mm | - | 41 W/m² | - |
| 1777465416 | 11.11° C | 90% | 1016.9 hPa | 0 mm | - | 42 W/m² | - |
| 1777465114 | 11.11° C | 90% | 1017 hPa | 0 mm | - | 47 W/m² | - |
| 1777464810 | 10.56° C | 90% | 1016.8 hPa | 0 mm | - | 44 W/m² | - |
| 1777464505 | 10.56° C | 90% | 1016.8 hPa | 0 mm | - | 42 W/m² | - |
| 1777464202 | 10.56° C | 89% | 1017.1 hPa | 0 mm | - | 41 W/m² | - |
| 1777463902 | 10.56° C | 89% | 1016.8 hPa | 0 mm | - | 39 W/m² | - |
| 1777463598 | 10.56° C | 89% | 1016.7 hPa | 0 mm | - | 39 W/m² | - |
| 1777463293 | 10.56° C | 89% | 1016.6 hPa | 0 mm | - | 35 W/m² | - |
| 1777462989 | 10.56° C | 89% | 1016.5 hPa | 0 mm | - | 30 W/m² | - |
* Rain latest hour (hover to see other rain measurements)
** Current wind speed in m/s (hover to see current wind gust speed)